sensor_id;sensor_type;location;lat;lon;timestamp;pressure;altitude;pressure_sealevel;temperature;humidity
4273;BME280;63887;53.656;9.810;2023-04-04T00:01:22;103255.13;;;0.22;78.67
4273;BME280;63887;53.656;9.810;2023-04-04T00:03:48;103255.16;;;-0.07;80.19
4273;BME280;63887;53.656;9.810;2023-04-04T00:06:15;103255.81;;;-0.14;80.42
4273;BME280;63887;53.656;9.810;2023-04-04T00:08:43;103246.59;;;-0.34;82.34
4273;BME280;63887;53.656;9.810;2023-04-04T00:11:10;103240.09;;;-0.21;81.49
4273;BME280;63887;53.656;9.810;2023-04-04T00:13:36;103237.63;;;-0.18;80.67
4273;BME280;63887;53.656;9.810;2023-04-04T00:16:03;103233.44;;;-0.15;80.72
4273;BME280;63887;53.656;9.810;2023-04-04T00:18:31;103233.94;;;-0.26;81.69
4273;BME280;63887;53.656;9.810;2023-04-04T00:20:57;103235.03;;;-0.47;83.11
4273;BME280;63887;53.656;9.810;2023-04-04T00:23:24;103229.88;;;-0.47;82.41
4273;BME280;63887;53.656;9.810;2023-04-04T00:25:52;103230.13;;;-0.39;81.78
4273;BME280;63887;53.656;9.810;2023-04-04T00:28:19;103226.75;;;-0.37;81.64
4273;BME280;63887;53.656;9.810;2023-04-04T00:30:46;103226.59;;;-0.43;81.85
4273;BME280;63887;53.656;9.810;2023-04-04T00:33:13;103227.13;;;-0.53;81.79
4273;BME280;63887;53.656;9.810;2023-04-04T00:35:39;103233.94;;;-0.55;84.11
4273;BME280;63887;53.656;9.810;2023-04-04T00:38:06;103221.69;;;-0.62;84.09
4273;BME280;63887;53.656;9.810;2023-04-04T00:40:33;103225.13;;;-0.62;83.50
4273;BME280;63887;53.656;9.810;2023-04-04T00:43:07;103230.28;;;-0.62;83.91
4273;BME280;63887;53.656;9.810;2023-04-04T00:45:34;103228.44;;;-0.66;84.01
4273;BME280;63887;53.656;9.810;2023-04-04T00:48:01;103232.91;;;-0.60;83.17
4273;BME280;63887;53.656;9.810;2023-04-04T00:50:28;103222.94;;;-0.49;82.58
4273;BME280;63887;53.656;9.810;2023-04-04T00:52:56;103228.69;;;-0.58;83.10
4273;BME280;63887;53.656;9.810;2023-04-04T00:55:22;103220.09;;;-0.58;82.60
4273;BME280;63887;53.656;9.810;2023-04-04T00:57:49;103213.31;;;-0.55;82.73
4273;BME280;63887;53.656;9.810;2023-04-04T01:00:18;103211.41;;;-0.61;82.56
4273;BME280;63887;53.656;9.810;2023-04-04T01:02:45;103206.25;;;-0.61;83.24
4273;BME280;63887;53.656;9.810;2023-04-04T01:05:12;103210.66;;;-0.58;82.28
4273;BME280;63887;53.656;9.810;2023-04-04T01:07:39;103210.44;;;-0.64;83.17
4273;BME280;63887;53.656;9.810;2023-04-04T01:10:06;103210.28;;;-0.70;83.27
4273;BME280;63887;53.656;9.810;2023-04-04T01:12:33;103202.47;;;-0.73;83.94
4273;BME280;63887;53.656;9.810;2023-04-04T01:15:00;103204.03;;;-0.77;83.48
4273;BME280;63887;53.656;9.810;2023-04-04T01:17:28;103199.66;;;-0.79;84.75
4273;BME280;63887;53.656;9.810;2023-04-04T01:20:00;103190.31;;;-0.76;84.16
4273;BME280;63887;53.656;9.810;2023-04-04T01:22:29;103194.53;;;-0.79;84.07
4273;BME280;63887;53.656;9.810;2023-04-04T01:24:55;103186.16;;;-0.72;83.84
4273;BME280;63887;53.656;9.810;2023-04-04T01:27:24;103178.78;;;-0.88;84.73
4273;BME280;63887;53.656;9.810;2023-04-04T01:29:51;103173.63;;;-0.88;84.82
4273;BME280;63887;53.656;9.810;2023-04-04T01:32:19;103176.13;;;-0.90;85.02
4273;BME280;63887;53.656;9.810;2023-04-04T01:34:53;103166.44;;;-0.99;86.77
4273;BME280;63887;53.656;9.810;2023-04-04T01:37:27;103171.84;;;-0.90;84.61
4273;BME280;63887;53.656;9.810;2023-04-04T01:40:03;103164.78;;;-0.97;84.37
4273;BME280;63887;53.656;9.810;2023-04-04T01:42:35;103166.41;;;-1.00;84.61
4273;BME280;63887;53.656;9.810;2023-04-04T01:45:03;103167.31;;;-0.98;84.83
4273;BME280;63887;53.656;9.810;2023-04-04T01:47:37;103176.22;;;-0.88;84.46
4273;BME280;63887;53.656;9.810;2023-04-04T01:50:04;103171.97;;;-0.86;83.82
4273;BME280;63887;53.656;9.810;2023-04-04T01:52:31;103167.63;;;-0.89;84.20
4273;BME280;63887;53.656;9.810;2023-04-04T01:54:57;103170.38;;;-0.83;83.72
4273;BME280;63887;53.656;9.810;2023-04-04T01:57:24;103163.72;;;-0.75;83.62
4273;BME280;63887;53.656;9.810;2023-04-04T01:59:51;103160.28;;;-0.75;83.32
4273;BME280;63887;53.656;9.810;2023-04-04T02:02:18;103165.34;;;-0.78;83.68
4273;BME280;63887;53.656;9.810;2023-04-04T02:04:44;103165.03;;;-0.89;84.21
4273;BME280;63887;53.656;9.810;2023-04-04T02:07:11;103163.81;;;-1.00;85.41
4273;BME280;63887;53.656;9.810;2023-04-04T02:09:37;103160.75;;;-0.88;84.87
4273;BME280;63887;53.656;9.810;2023-04-04T02:12:04;103160.69;;;-0.90;84.41
4273;BME280;63887;53.656;9.810;2023-04-04T02:14:30;103154.66;;;-0.91;84.52
4273;BME280;63887;53.656;9.810;2023-04-04T02:16:58;103155.53;;;-0.90;84.08
4273;BME280;63887;53.656;9.810;2023-04-04T02:19:25;103153.78;;;-0.91;84.52
4273;BME280;63887;53.656;9.810;2023-04-04T02:21:51;103152.94;;;-0.90;83.87
4273;BME280;63887;53.656;9.810;2023-04-04T02:24:18;103159.09;;;-0.86;83.98
4273;BME280;63887;53.656;9.810;2023-04-04T02:26:44;103158.19;;;-0.88;83.96
4273;BME280;63887;53.656;9.810;2023-04-04T02:29:11;103161.50;;;-0.91;84.93
4273;BME280;63887;53.656;9.810;2023-04-04T02:31:37;103152.09;;;-0.91;84.65
4273;BME280;63887;53.656;9.810;2023-04-04T02:34:05;103147.66;;;-0.95;84.69
4273;BME280;63887;53.656;9.810;2023-04-04T02:36:31;103146.00;;;-0.93;84.57
4273;BME280;63887;53.656;9.810;2023-04-04T02:38:58;103147.72;;;-0.93;84.96
4273;BME280;63887;53.656;9.810;2023-04-04T02:41:25;103145.09;;;-0.95;85.06
4273;BME280;63887;53.656;9.810;2023-04-04T02:43:52;103145.00;;;-0.98;85.42
4273;BME280;63887;53.656;9.810;2023-04-04T02:46:18;103144.03;;;-1.01;85.47
4273;BME280;63887;53.656;9.810;2023-04-04T02:48:44;103142.97;;;-1.08;86.10
4273;BME280;63887;53.656;9.810;2023-04-04T02:51:12;103142.47;;;-0.96;85.84
4273;BME280;63887;53.656;9.810;2023-04-04T02:53:39;103145.38;;;-0.85;85.59
4273;BME280;63887;53.656;9.810;2023-04-04T02:56:06;103141.59;;;-0.97;85.99
4273;BME280;63887;53.656;9.810;2023-04-04T02:58:32;103145.78;;;-1.00;86.40
4273;BME280;63887;53.656;9.810;2023-04-04T03:00:59;103145.97;;;-0.94;86.35
4273;BME280;63887;53.656;9.810;2023-04-04T03:03:26;103142.66;;;-0.90;86.18
4273;BME280;63887;53.656;9.810;2023-04-04T03:05:52;103153.25;;;-0.81;85.41
4273;BME280;63887;53.656;9.810;2023-04-04T03:08:20;103145.97;;;-0.94;86.17
4273;BME280;63887;53.656;9.810;2023-04-04T03:10:46;103144.22;;;-0.95;86.18
4273;BME280;63887;53.656;9.810;2023-04-04T03:13:13;103142.03;;;-1.10;86.58
4273;BME280;63887;53.656;9.810;2023-04-04T03:15:39;103145.78;;;-1.00;86.09
4273;BME280;63887;53.656;9.810;2023-04-04T03:18:06;103143.38;;;-0.94;84.79
4273;BME280;63887;53.656;9.810;2023-04-04T03:20:32;103143.34;;;-0.96;84.90
4273;BME280;63887;53.656;9.810;2023-04-04T03:22:59;103144.22;;;-0.95;84.95
4273;BME280;63887;53.656;9.810;2023-04-04T03:25:27;103138.97;;;-0.98;85.45
4273;BME280;63887;53.656;9.810;2023-04-04T03:27:53;103143.00;;;-1.06;86.05
4273;BME280;63887;53.656;9.810;2023-04-04T03:30:20;103132.00;;;-1.02;86.07
4273;BME280;63887;53.656;9.810;2023-04-04T03:32:46;103134.56;;;-1.02;85.04
4273;BME280;63887;53.656;9.810;2023-04-04T03:35:15;103130.81;;;-1.12;86.16
4273;BME280;63887;53.656;9.810;2023-04-04T03:37:41;103130.28;;;-1.02;86.02
4273;BME280;63887;53.656;9.810;2023-04-04T03:40:08;103129.22;;;-1.08;85.82
4273;BME280;63887;53.656;9.810;2023-04-04T03:42:36;103130.56;;;-0.93;85.75
4273;BME280;63887;53.656;9.810;2023-04-04T03:45:03;103131.00;;;-1.06;85.09
4273;BME280;63887;53.656;9.810;2023-04-04T03:47:29;103128.53;;;-1.03;85.62
4273;BME280;63887;53.656;9.810;2023-04-04T03:49:56;103129.69;;;-0.93;84.69
4273;BME280;63887;53.656;9.810;2023-04-04T03:52:22;103131.16;;;-1.01;85.32
4273;BME280;63887;53.656;9.810;2023-04-04T03:54:48;103132.22;;;-0.95;84.78
4273;BME280;63887;53.656;9.810;2023-04-04T03:57:15;103124.44;;;-0.96;84.83
4273;BME280;63887;53.656;9.810;2023-04-04T03:59:43;103129.84;;;-0.88;84.52
4273;BME280;63887;53.656;9.810;2023-04-04T04:02:09;103127.91;;;-0.96;83.73
4273;BME280;63887;53.656;9.810;2023-04-04T04:04:35;103126.44;;;-0.87;84.00
4273;BME280;63887;53.656;9.810;2023-04-04T04:07:02;103120.94;;;-0.98;84.10
4273;BME280;63887;53.656;9.810;2023-04-04T04:09:28;103124.56;;;-0.92;84.70
4273;BME280;63887;53.656;9.810;2023-04-04T04:11:55;103118.06;;;-0.80;84.13
4273;BME280;63887;53.656;9.810;2023-04-04T04:14:21;103126.22;;;-0.94;84.30
4273;BME280;63887;53.656;9.810;2023-04-04T04:16:49;103129.38;;;-1.04;86.29
4273;BME280;63887;53.656;9.810;2023-04-04T04:19:15;103135.13;;;-0.84;85.22
4273;BME280;63887;53.656;9.810;2023-04-04T04:21:42;103128.59;;;-1.01;85.86
4273;BME280;63887;53.656;9.810;2023-04-04T04:24:09;103126.53;;;-0.84;84.20
4273;BME280;63887;53.656;9.810;2023-04-04T04:26:35;103120.16;;;-0.96;83.98
4273;BME280;63887;53.656;9.810;2023-04-04T04:29:02;103117.47;;;-1.00;84.29
4273;BME280;63887;53.656;9.810;2023-04-04T04:31:28;103125.34;;;-0.94;85.11
4273;BME280;63887;53.656;9.810;2023-04-04T04:33:56;103125.03;;;-1.05;85.57
4273;BME280;63887;53.656;9.810;2023-04-04T04:36:23;103123.44;;;-1.01;83.53
4273;BME280;63887;53.656;9.810;2023-04-04T04:38:49;103125.84;;;-1.06;85.06
4273;BME280;63887;53.656;9.810;2023-04-04T04:41:16;103126.78;;;-0.75;83.78
4273;BME280;63887;53.656;9.810;2023-04-04T04:43:42;103129.63;;;-0.95;84.38
4273;BME280;63887;53.656;9.810;2023-04-04T04:46:09;103133.44;;;-0.83;85.26
4273;BME280;63887;53.656;9.810;2023-04-04T04:48:35;103129.78;;;-0.90;84.51
4273;BME280;63887;53.656;9.810;2023-04-04T04:51:03;103126.41;;;-0.89;84.57
4273;BME280;63887;53.656;9.810;2023-04-04T04:53:30;103125.44;;;-0.91;83.39
4273;BME280;63887;53.656;9.810;2023-04-04T04:55:57;103126.94;;;-0.99;84.10
4273;BME280;63887;53.656;9.810;2023-04-04T04:58:23;103126.53;;;-1.11;85.04
4273;BME280;63887;53.656;9.810;2023-04-04T05:00:53;103121.53;;;-1.07;84.60
4273;BME280;63887;53.656;9.810;2023-04-04T05:03:20;103122.66;;;-0.99;84.78
4273;BME280;63887;53.656;9.810;2023-04-04T05:05:46;103116.50;;;-1.04;85.05
4273;BME280;63887;53.656;9.810;2023-04-04T05:08:14;103121.88;;;-0.96;84.99
4273;BME280;63887;53.656;9.810;2023-04-04T05:10:41;103121.81;;;-0.69;84.23
4273;BME280;63887;53.656;9.810;2023-04-04T05:13:07;103121.69;;;-0.74;83.57
4273;BME280;63887;53.656;9.810;2023-04-04T05:15:34;103122.75;;;-0.67;83.48
4273;BME280;63887;53.656;9.810;2023-04-04T05:18:01;103127.91;;;-0.67;83.09
4273;BME280;63887;53.656;9.810;2023-04-04T05:20:27;103128.94;;;-0.61;83.27
4273;BME280;63887;53.656;9.810;2023-04-04T05:22:54;103134.88;;;-0.63;83.08
4273;BME280;63887;53.656;9.810;2023-04-04T05:25:21;103131.47;;;-0.62;83.85
4273;BME280;63887;53.656;9.810;2023-04-04T05:27:48;103125.44;;;-0.63;83.01
4273;BME280;63887;53.656;9.810;2023-04-04T05:30:14;103121.72;;;-0.12;80.99
4273;BME280;63887;53.656;9.810;2023-04-04T05:32:43;103124.72;;;0.03;79.55
4273;BME280;63887;53.656;9.810;2023-04-04T05:35:09;103114.50;;;0.08;78.35
4273;BME280;63887;53.656;9.810;2023-04-04T05:37:38;103121.72;;;-0.12;79.14
4273;BME280;63887;53.656;9.810;2023-04-04T05:40:06;103129.31;;;-0.17;80.29
4273;BME280;63887;53.656;9.810;2023-04-04T05:42:33;103128.25;;;0.07;78.08
4273;BME280;63887;53.656;9.810;2023-04-04T05:45:00;103126.78;;;0.16;78.41
4273;BME280;63887;53.656;9.810;2023-04-04T05:47:26;103132.81;;;0.17;78.20
4273;BME280;63887;53.656;9.810;2023-04-04T05:49:53;103127.97;;;0.64;76.52
4273;BME280;63887;53.656;9.810;2023-04-04T05:52:19;103126.75;;;0.85;74.73
4273;BME280;63887;53.656;9.810;2023-04-04T05:54:46;103129.75;;;0.66;75.81
4273;BME280;63887;53.656;9.810;2023-04-04T05:57:12;103124.34;;;0.57;77.07
4273;BME280;63887;53.656;9.810;2023-04-04T05:59:40;103125.09;;;0.87;75.26
4273;BME280;63887;53.656;9.810;2023-04-04T06:02:06;103125.81;;;0.82;76.50
4273;BME280;63887;53.656;9.810;2023-04-04T06:04:32;103126.94;;;0.57;75.62
4273;BME280;63887;53.656;9.810;2023-04-04T06:06:59;103116.88;;;0.68;76.52
4273;BME280;63887;53.656;9.810;2023-04-04T06:09:26;103116.34;;;0.81;75.92
4273;BME280;63887;53.656;9.810;2023-04-04T06:11:52;103130.00;;;0.75;75.49
4273;BME280;63887;53.656;9.810;2023-04-04T06:14:19;103133.00;;;0.59;76.57
4273;BME280;63887;53.656;9.810;2023-04-04T06:16:46;103131.28;;;0.58;76.38
4273;BME280;63887;53.656;9.810;2023-04-04T06:19:13;103141.88;;;1.05;75.33
4273;BME280;63887;53.656;9.810;2023-04-04T06:21:39;103136.88;;;1.53;74.03
4273;BME280;63887;53.656;9.810;2023-04-04T06:24:06;103132.41;;;2.36;69.66
4273;BME280;63887;53.656;9.810;2023-04-04T06:26:32;103124.41;;;3.33;65.46
4273;BME280;63887;53.656;9.810;2023-04-04T06:28:59;103120.00;;;5.06;61.53
4273;BME280;63887;53.656;9.810;2023-04-04T06:31:26;103117.84;;;6.74;56.49
4273;BME280;63887;53.656;9.810;2023-04-04T06:33:54;103118.63;;;7.16;53.33
4273;BME280;63887;53.656;9.810;2023-04-04T06:36:20;103126.97;;;9.08;48.91
4273;BME280;63887;53.656;9.810;2023-04-04T06:38:47;103110.06;;;10.58;42.82
4273;BME280;63887;53.656;9.810;2023-04-04T06:41:13;103113.13;;;12.09;39.86
4273;BME280;63887;53.656;9.810;2023-04-04T06:43:39;103109.06;;;13.00;36.98
4273;BME280;63887;53.656;9.810;2023-04-04T06:46:06;103101.75;;;13.71;34.64
4273;BME280;63887;53.656;9.810;2023-04-04T06:48:33;103103.16;;;14.89;32.76
4273;BME280;63887;53.656;9.810;2023-04-04T06:51:04;103100.53;;;14.89;31.80
4273;BME280;63887;53.656;9.810;2023-04-04T06:53:30;103104.50;;;13.37;33.94
4273;BME280;63887;53.656;9.810;2023-04-04T06:55:57;103098.81;;;12.21;36.64
4273;BME280;63887;53.656;9.810;2023-04-04T06:58:24;103105.69;;;13.57;34.85
4273;BME280;63887;53.656;9.810;2023-04-04T07:00:50;103100.88;;;11.26;38.73
4273;BME280;63887;53.656;9.810;2023-04-04T07:03:16;103099.66;;;11.43;39.94
4273;BME280;63887;53.656;9.810;2023-04-04T07:05:43;103103.59;;;10.77;40.25
4273;BME280;63887;53.656;9.810;2023-04-04T07:08:12;103109.88;;;10.13;44.68
4273;BME280;63887;53.656;9.810;2023-04-04T07:10:38;103102.69;;;10.27;42.35
4273;BME280;63887;53.656;9.810;2023-04-04T07:13:05;103105.16;;;9.04;46.96
4273;BME280;63887;53.656;9.810;2023-04-04T07:15:32;103104.22;;;8.13;48.63
4273;BME280;63887;53.656;9.810;2023-04-04T07:17:58;103099.41;;;7.35;51.90
4273;BME280;63887;53.656;9.810;2023-04-04T07:20:25;103094.38;;;6.30;56.25
4273;BME280;63887;53.656;9.810;2023-04-04T07:22:52;103090.03;;;6.56;53.88
4273;BME280;63887;53.656;9.810;2023-04-04T07:25:20;103091.78;;;6.61;51.67
4273;BME280;63887;53.656;9.810;2023-04-04T07:27:47;103094.38;;;6.54;50.95
4273;BME280;63887;53.656;9.810;2023-04-04T07:30:14;103090.03;;;6.29;53.45
4273;BME280;63887;53.656;9.810;2023-04-04T07:32:40;103100.34;;;5.69;54.40
4273;BME280;63887;53.656;9.810;2023-04-04T07:35:07;103097.63;;;5.36;57.30
4273;BME280;63887;53.656;9.810;2023-04-04T07:37:35;103102.94;;;5.76;58.02
4273;BME280;63887;53.656;9.810;2023-04-04T07:40:02;103104.72;;;5.81;57.57
4273;BME280;63887;53.656;9.810;2023-04-04T07:42:30;103108.16;;;5.71;56.74
4273;BME280;63887;53.656;9.810;2023-04-04T07:44:56;103102.91;;;5.65;56.38
4273;BME280;63887;53.656;9.810;2023-04-04T07:47:23;103103.53;;;5.09;56.82
4273;BME280;63887;53.656;9.810;2023-04-04T07:49:50;103111.56;;;5.55;57.55
4273;BME280;63887;53.656;9.810;2023-04-04T07:52:16;103094.34;;;5.96;55.28
4273;BME280;63887;53.656;9.810;2023-04-04T07:54:43;103096.97;;;6.00;54.44
4273;BME280;63887;53.656;9.810;2023-04-04T07:57:11;103094.38;;;6.18;52.49
4273;BME280;63887;53.656;9.810;2023-04-04T07:59:39;103099.59;;;6.13;51.28
4273;BME280;63887;53.656;9.810;2023-04-04T08:02:06;103088.31;;;6.34;55.14
4273;BME280;63887;53.656;9.810;2023-04-04T08:04:32;103081.34;;;6.32;55.11
4273;BME280;63887;53.656;9.810;2023-04-04T08:06:59;103094.38;;;6.74;51.03
4273;BME280;63887;53.656;9.810;2023-04-04T08:09:25;103085.66;;;6.75;53.22
4273;BME280;63887;53.656;9.810;2023-04-04T08:11:55;103079.53;;;6.84;49.42
4273;BME280;63887;53.656;9.810;2023-04-04T08:14:21;103082.22;;;6.63;47.82
4273;BME280;63887;53.656;9.810;2023-04-04T08:16:49;103072.66;;;6.37;48.39
4273;BME280;63887;53.656;9.810;2023-04-04T08:19:16;103079.56;;;6.79;46.94
4273;BME280;63887;53.656;9.810;2023-04-04T08:21:42;103072.69;;;6.40;48.28
4273;BME280;63887;53.656;9.810;2023-04-04T08:24:10;103076.09;;;6.68;46.68
4273;BME280;63887;53.656;9.810;2023-04-04T08:26:36;103069.97;;;6.97;44.75
4273;BME280;63887;53.656;9.810;2023-04-04T08:29:03;103070.91;;;6.53;45.04
4273;BME280;63887;53.656;9.810;2023-04-04T08:31:30;103080.47;;;6.62;46.65
4273;BME280;63887;53.656;9.810;2023-04-04T08:33:58;103074.38;;;6.49;46.15
4273;BME280;63887;53.656;9.810;2023-04-04T08:36:26;103077.00;;;6.38;44.58
4273;BME280;63887;53.656;9.810;2023-04-04T08:38:52;103083.94;;;6.04;46.71
4273;BME280;63887;53.656;9.810;2023-04-04T08:41:19;103070.94;;;6.15;46.37
4273;BME280;63887;53.656;9.810;2023-04-04T08:43:46;103074.38;;;6.37;44.94
4273;BME280;63887;53.656;9.810;2023-04-04T08:46:20;103069.16;;;6.06;50.56
4273;BME280;63887;53.656;9.810;2023-04-04T08:48:49;103070.06;;;6.31;50.77
4273;BME280;63887;53.656;9.810;2023-04-04T08:51:18;103070.03;;;6.60;49.61
4273;BME280;63887;53.656;9.810;2023-04-04T08:53:45;103063.97;;;6.58;49.40
4273;BME280;63887;53.656;9.810;2023-04-04T08:56:12;103070.00;;;6.81;45.74
4273;BME280;63887;53.656;9.810;2023-04-04T08:58:39;103061.28;;;6.82;46.41
4273;BME280;63887;53.656;9.810;2023-04-04T09:01:06;103059.53;;;7.01;44.27
4273;BME280;63887;53.656;9.810;2023-04-04T09:03:33;103065.66;;;6.82;44.44
4273;BME280;63887;53.656;9.810;2023-04-04T09:06:01;103064.84;;;6.58;44.52
4273;BME280;63887;53.656;9.810;2023-04-04T09:08:30;103063.09;;;6.50;47.03
4273;BME280;63887;53.656;9.810;2023-04-04T09:11:01;103064.81;;;6.52;47.04
4273;BME280;63887;53.656;9.810;2023-04-04T09:13:28;103063.94;;;6.64;45.92
4273;BME280;63887;53.656;9.810;2023-04-04T09:15:55;103053.53;;;6.49;45.11
4273;BME280;63887;53.656;9.810;2023-04-04T09:18:23;103051.81;;;6.40;44.82
4273;BME280;63887;53.656;9.810;2023-04-04T09:20:49;103047.47;;;6.33;44.30
4273;BME280;63887;53.656;9.810;2023-04-04T09:23:17;103046.59;;;6.36;43.95
4273;BME280;63887;53.656;9.810;2023-04-04T09:25:47;103044.88;;;6.16;44.54
4273;BME280;63887;53.656;9.810;2023-04-04T09:28:15;103053.56;;;6.15;46.61
4273;BME280;63887;53.656;9.810;2023-04-04T09:30:41;103050.91;;;6.70;43.86
4273;BME280;63887;53.656;9.810;2023-04-04T09:33:10;103043.09;;;6.72;43.25
4273;BME280;63887;53.656;9.810;2023-04-04T09:35:37;103042.19;;;6.67;43.10
4273;BME280;63887;53.656;9.810;2023-04-04T09:38:06;103046.53;;;6.81;43.25
4273;BME280;63887;53.656;9.810;2023-04-04T09:40:33;103044.72;;;6.97;42.06
4273;BME280;63887;53.656;9.810;2023-04-04T09:43:01;103043.06;;;6.85;43.08
4273;BME280;63887;53.656;9.810;2023-04-04T09:45:29;103045.63;;;6.90;42.38
4273;BME280;63887;53.656;9.810;2023-04-04T09:47:56;103045.59;;;7.04;41.40
4273;BME280;63887;53.656;9.810;2023-04-04T09:50:24;103046.44;;;7.15;41.39
4273;BME280;63887;53.656;9.810;2023-04-04T09:52:55;103043.06;;;6.85;42.35
4273;BME280;63887;53.656;9.810;2023-04-04T09:55:30;103037.78;;;6.95;43.64
4273;BME280;63887;53.656;9.810;2023-04-04T09:57:57;103040.38;;;7.07;41.46
4273;BME280;63887;53.656;9.810;2023-04-04T10:00:28;103028.28;;;6.78;41.13
4273;BME280;63887;53.656;9.810;2023-04-04T10:02:55;103034.31;;;6.96;42.05
4273;BME280;63887;53.656;9.810;2023-04-04T10:05:24;103035.13;;;7.07;41.70
4273;BME280;63887;53.656;9.810;2023-04-04T10:07:51;103027.38;;;6.90;40.82
4273;BME280;63887;53.656;9.810;2023-04-04T10:10:18;103029.06;;;7.05;41.19
4273;BME280;63887;53.656;9.810;2023-04-04T10:12:45;103029.94;;;7.04;43.54
4273;BME280;63887;53.656;9.810;2023-04-04T10:15:14;103021.28;;;6.93;41.64
4273;BME280;63887;53.656;9.810;2023-04-04T10:17:43;103022.97;;;6.98;43.08
4273;BME280;63887;53.656;9.810;2023-04-04T10:20:12;103019.34;;;7.39;39.72
4273;BME280;63887;53.656;9.810;2023-04-04T10:22:39;103020.28;;;7.21;39.93
4273;BME280;63887;53.656;9.810;2023-04-04T10:25:06;103017.69;;;7.21;40.82
4273;BME280;63887;53.656;9.810;2023-04-04T10:27:33;103021.06;;;7.38;39.61
4273;BME280;63887;53.656;9.810;2023-04-04T10:30:02;103021.91;;;7.43;40.12
4273;BME280;63887;53.656;9.810;2023-04-04T10:32:32;103019.38;;;7.33;40.40
4273;BME280;63887;53.656;9.810;2023-04-04T10:35:06;103018.56;;;7.14;40.96
4273;BME280;63887;53.656;9.810;2023-04-04T10:37:39;103008.97;;;7.25;40.37
4273;BME280;63887;53.656;9.810;2023-04-04T10:40:09;103017.59;;;7.39;38.83
4273;BME280;63887;53.656;9.810;2023-04-04T10:42:41;103011.56;;;7.24;38.89
4273;BME280;63887;53.656;9.810;2023-04-04T10:45:10;103011.66;;;7.07;38.92
4273;BME280;63887;53.656;9.810;2023-04-04T10:47:39;103010.03;;;6.69;39.34
4273;BME280;63887;53.656;9.810;2023-04-04T10:50:08;103013.38;;;7.08;38.81
4273;BME280;63887;53.656;9.810;2023-04-04T10:52:36;103000.34;;;7.08;37.46
4273;BME280;63887;53.656;9.810;2023-04-04T10:55:06;102988.06;;;7.25;37.91
4273;BME280;63887;53.656;9.810;2023-04-04T10:57:36;102987.19;;;7.28;38.08
4273;BME280;63887;53.656;9.810;2023-04-04T11:00:04;102988.94;;;7.32;37.96
4273;BME280;63887;53.656;9.810;2023-04-04T11:02:43;102996.00;;;7.07;36.31
4273;BME280;63887;53.656;9.810;2023-04-04T11:05:11;102994.41;;;6.65;40.10
4273;BME280;63887;53.656;9.810;2023-04-04T11:07:40;102988.31;;;6.67;37.83
4273;BME280;63887;53.656;9.810;2023-04-04T11:10:13;102990.75;;;7.11;38.09
4273;BME280;63887;53.656;9.810;2023-04-04T11:12:44;102983.78;;;7.12;38.75
4273;BME280;63887;53.656;9.810;2023-04-04T11:15:12;102975.06;;;7.19;39.33
4273;BME280;63887;53.656;9.810;2023-04-04T11:17:53;102979.34;;;7.34;38.02
4273;BME280;63887;53.656;9.810;2023-04-04T11:20:23;102982.78;;;7.39;38.33
4273;BME280;63887;53.656;9.810;2023-04-04T11:23:01;102964.41;;;7.54;37.58
4273;BME280;63887;53.656;9.810;2023-04-04T11:25:31;102963.69;;;7.26;40.18
4273;BME280;63887;53.656;9.810;2023-04-04T11:27:58;102955.56;;;7.72;37.88
4273;BME280;63887;53.656;9.810;2023-04-04T11:30:28;102952.06;;;7.77;38.02
4273;BME280;63887;53.656;9.810;2023-04-04T11:32:56;102962.00;;;8.37;35.71
4273;BME280;63887;53.656;9.810;2023-04-04T11:35:25;102947.19;;;8.30;37.39
4273;BME280;63887;53.656;9.810;2023-04-04T11:37:58;102939.88;;;8.65;34.35
4273;BME280;63887;53.656;9.810;2023-04-04T11:40:36;102941.84;;;8.48;34.88
4273;BME280;63887;53.656;9.810;2023-04-04T11:43:06;102939.00;;;8.66;34.60
4273;BME280;63887;53.656;9.810;2023-04-04T11:45:34;102937.56;;;8.40;35.14
4273;BME280;63887;53.656;9.810;2023-04-04T11:48:02;102929.47;;;8.59;36.04
4273;BME280;63887;53.656;9.810;2023-04-04T11:50:35;102933.81;;;8.60;38.39
4273;BME280;63887;53.656;9.810;2023-04-04T11:53:04;102932.84;;;8.71;34.27
4273;BME280;63887;53.656;9.810;2023-04-04T11:55:31;102932.34;;;8.38;34.72
4273;BME280;63887;53.656;9.810;2023-04-04T11:58:04;102934.72;;;8.58;33.24
4273;BME280;63887;53.656;9.810;2023-04-04T12:00:32;102927.84;;;8.52;32.67
4273;BME280;63887;53.656;9.810;2023-04-04T12:03:03;102932.41;;;8.29;34.01
4273;BME280;63887;53.656;9.810;2023-04-04T12:05:30;102925.84;;;7.87;35.51
4273;BME280;63887;53.656;9.810;2023-04-04T12:07:58;102917.56;;;8.35;34.90
4273;BME280;63887;53.656;9.810;2023-04-04T12:10:28;102918.69;;;8.07;34.12
4273;BME280;63887;53.656;9.810;2023-04-04T12:12:56;102922.03;;;8.23;33.35
4273;BME280;63887;53.656;9.810;2023-04-04T12:15:23;102915.56;;;7.65;34.43
4273;BME280;63887;53.656;9.810;2023-04-04T12:17:52;102922.06;;;8.20;35.70
4273;BME280;63887;53.656;9.810;2023-04-04T12:20:21;102915.69;;;8.45;32.56
4273;BME280;63887;53.656;9.810;2023-04-04T12:22:48;102909.72;;;8.29;34.17
4273;BME280;63887;53.656;9.810;2023-04-04T12:25:17;102905.88;;;8.65;33.02
4273;BME280;63887;53.656;9.810;2023-04-04T12:27:45;102903.97;;;8.77;33.02
4273;BME280;63887;53.656;9.810;2023-04-04T12:30:13;102898.56;;;8.90;32.46
4273;BME280;63887;53.656;9.810;2023-04-04T12:32:41;102895.69;;;9.07;32.64
4273;BME280;63887;53.656;9.810;2023-04-04T12:35:09;102900.38;;;8.85;33.22
4273;BME280;63887;53.656;9.810;2023-04-04T12:37:36;102895.34;;;8.70;33.75
4273;BME280;63887;53.656;9.810;2023-04-04T12:40:03;102896.28;;;8.66;32.79
4273;BME280;63887;53.656;9.810;2023-04-04T12:42:33;102891.81;;;8.73;33.22
4273;BME280;63887;53.656;9.810;2023-04-04T12:45:01;102897.53;;;8.34;30.94
4273;BME280;63887;53.656;9.810;2023-04-04T12:47:29;102888.59;;;8.52;31.26
4273;BME280;63887;53.656;9.810;2023-04-04T12:49:56;102888.59;;;8.52;33.12
4273;BME280;63887;53.656;9.810;2023-04-04T12:52:26;102884.31;;;8.45;32.35
4273;BME280;63887;53.656;9.810;2023-04-04T12:54:57;102883.31;;;8.57;32.48
4273;BME280;63887;53.656;9.810;2023-04-04T12:57:25;102871.09;;;8.57;32.70
4273;BME280;63887;53.656;9.810;2023-04-04T12:59:54;102872.03;;;8.52;34.59
4273;BME280;63887;53.656;9.810;2023-04-04T13:02:22;102875.56;;;8.46;33.44
4273;BME280;63887;53.656;9.810;2023-04-04T13:04:51;102864.03;;;8.62;33.76
4273;BME280;63887;53.656;9.810;2023-04-04T13:07:20;102858.31;;;8.99;32.04